<?xml version="1.0" encoding="UTF-8" standalone="no" ?><gpx xmlns="http://www.topografix.com/GPX/1/1" xmlns:gpxx="http://www.garmin.com/xmlschemas/GpxExtensions/v3" xmlns:wptx1="http://www.garmin.com/xmlschemas/WaypointExtension/v1" xmlns:gpxtpx="http://www.garmin.com/xmlschemas/TrackPointExtension/v1" creator="GuideVTT.com" version="1.1" xmlns:xsi="http://www.w3.org/2001/XMLSchema-instance" xsi:schemaLocation="http://www.topografix.com/GPX/1/1 http://www.topografix.com/GPX/1/1/gpx.xsd http://www.garmin.com/xmlschemas/GpxExtensions/v3 http://www8.garmin.com/xmlschemas/GpxExtensionsv3.xsd http://www.garmin.com/xmlschemas/WaypointExtension/v1 http://www8.garmin.com/xmlschemas/WaypointExtensionv1.xsd http://www.garmin.com/xmlschemas/TrackPointExtension/v1 http://www.garmin.com/xmlschemas/TrackPointExtensionv1.xsd">
<metadata><link href="http://www.garmin.com"><text>Garmin International</text></link><time>2013-06-22T15:13:50Z</time></metadata>
<trk><name>rp2016_28.gpx</name><extensions><gpxx:TrackExtension><gpxx:DisplayColor>Cyan</gpxx:DisplayColor></gpxx:TrackExtension></extensions><trkseg>
<trkpt lat="46.20713" lon="7.43979"><ele>1511</ele><time>2016-07-19T15:49:45Z</time></trkpt>
<trkpt lat="46.20731" lon="7.43962"><ele>1511</ele><time>2016-07-19T15:49:53Z</time></trkpt>
<trkpt lat="46.20748" lon="7.4395"><ele>1510.2</ele><time>2016-07-19T15:49:59Z</time></trkpt>
<trkpt lat="46.20766" lon="7.43938"><ele>1502.4</ele><time>2016-07-19T15:50:06Z</time></trkpt>
<trkpt lat="46.20778" lon="7.43943"><ele>1500.2</ele><time>2016-07-19T15:50:10Z</time></trkpt>
<trkpt lat="46.20793" lon="7.43949"><ele>1499.6</ele><time>2016-07-19T15:50:15Z</time></trkpt>
<trkpt lat="46.20805" lon="7.43952"><ele>1499.2</ele><time>2016-07-19T15:50:19Z</time></trkpt>
<trkpt lat="46.2081" lon="7.43955"><ele>1498.6</ele><time>2016-07-19T15:50:21Z</time></trkpt>
<trkpt lat="46.2083" lon="7.43961"><ele>1498</ele><time>2016-07-19T15:50:27Z</time></trkpt>
<trkpt lat="46.20851" lon="7.43961"><ele>1496.6</ele><time>2016-07-19T15:50:33Z</time></trkpt>
<trkpt lat="46.20873" lon="7.43961"><ele>1496</ele><time>2016-07-19T15:50:39Z</time></trkpt>
<trkpt lat="46.20888" lon="7.43957"><ele>1495.6</ele><time>2016-07-19T15:50:43Z</time></trkpt>
<trkpt lat="46.2091" lon="7.43948"><ele>1494</ele><time>2016-07-19T15:50:48Z</time></trkpt>
<trkpt lat="46.20928" lon="7.43946"><ele>1492.2</ele><time>2016-07-19T15:50:51Z</time></trkpt>
<trkpt lat="46.20948" lon="7.43947"><ele>1490.2</ele><time>2016-07-19T15:50:54Z</time></trkpt>
<trkpt lat="46.20962" lon="7.43945"><ele>1487.6</ele><time>2016-07-19T15:50:56Z</time></trkpt>
<trkpt lat="46.20976" lon="7.43937"><ele>1485.2</ele><time>2016-07-19T15:50:58Z</time></trkpt>
<trkpt lat="46.20989" lon="7.43924"><ele>1482.4</ele><time>2016-07-19T15:51:00Z</time></trkpt>
<trkpt lat="46.21009" lon="7.43904"><ele>1478.6</ele><time>2016-07-19T15:51:03Z</time></trkpt>
<trkpt lat="46.21029" lon="7.43885"><ele>1475</ele><time>2016-07-19T15:51:06Z</time></trkpt>
<trkpt lat="46.21049" lon="7.43864"><ele>1472</ele><time>2016-07-19T15:51:09Z</time></trkpt>
<trkpt lat="46.21067" lon="7.43845"><ele>1468.8</ele><time>2016-07-19T15:51:12Z</time></trkpt>
<trkpt lat="46.2108" lon="7.43832"><ele>1466.2</ele><time>2016-07-19T15:51:14Z</time></trkpt>
<trkpt lat="46.21096" lon="7.43817"><ele>1463.4</ele><time>2016-07-19T15:51:17Z</time></trkpt>
<trkpt lat="46.2111" lon="7.43796"><ele>1461.8</ele><time>2016-07-19T15:51:21Z</time></trkpt>
<trkpt lat="46.21115" lon="7.43791"><ele>1463.2</ele><time>2016-07-19T15:51:23Z</time></trkpt>
<trkpt lat="46.21119" lon="7.43788"><ele>1463.4</ele><time>2016-07-19T15:51:25Z</time></trkpt>
<trkpt lat="46.21125" lon="7.43785"><ele>1466.2</ele><time>2016-07-19T15:51:28Z</time></trkpt>
<trkpt lat="46.21129" lon="7.43783"><ele>1465.6</ele><time>2016-07-19T15:51:30Z</time></trkpt>
<trkpt lat="46.21137" lon="7.43778"><ele>1468.4</ele><time>2016-07-19T15:51:36Z</time></trkpt>
<trkpt lat="46.21138" lon="7.43777"><ele>1468.2</ele><time>2016-07-19T15:51:37Z</time></trkpt>
<trkpt lat="46.21141" lon="7.43775"><ele>1468.6</ele><time>2016-07-19T15:51:40Z</time></trkpt>
<trkpt lat="46.21149" lon="7.43767"><ele>1469.6</ele><time>2016-07-19T15:51:46Z</time></trkpt>
<trkpt lat="46.21154" lon="7.43766"><ele>1469.6</ele><time>2016-07-19T15:51:49Z</time></trkpt>
<trkpt lat="46.21165" lon="7.43758"><ele>1467.6</ele><time>2016-07-19T15:51:57Z</time></trkpt>
<trkpt lat="46.21181" lon="7.43748"><ele>1465.4</ele><time>2016-07-19T15:52:10Z</time></trkpt>
<trkpt lat="46.21196" lon="7.43736"><ele>1465.2</ele><time>2016-07-19T15:52:22Z</time></trkpt>
<trkpt lat="46.2121" lon="7.43724"><ele>1465.6</ele><time>2016-07-19T15:52:34Z</time></trkpt>
<trkpt lat="46.21217" lon="7.43713"><ele>1466.2</ele><time>2016-07-19T15:52:41Z</time></trkpt>
<trkpt lat="46.21223" lon="7.43709"><ele>1466.6</ele><time>2016-07-19T15:52:46Z</time></trkpt>
<trkpt lat="46.21234" lon="7.437"><ele>1467.4</ele><time>2016-07-19T15:52:55Z</time></trkpt>
<trkpt lat="46.21245" lon="7.43688"><ele>1468.4</ele><time>2016-07-19T15:53:05Z</time></trkpt>
<trkpt lat="46.21264" lon="7.43668"><ele>1470</ele><time>2016-07-19T15:53:22Z</time></trkpt>
<trkpt lat="46.21266" lon="7.43667"><ele>1470.2</ele><time>2016-07-19T15:53:23Z</time></trkpt>
<trkpt lat="46.21272" lon="7.43661"><ele>1470.6</ele><time>2016-07-19T15:53:28Z</time></trkpt>
<trkpt lat="46.21288" lon="7.43646"><ele>1471.8</ele><time>2016-07-19T15:53:42Z</time></trkpt>
<trkpt lat="46.21291" lon="7.43642"><ele>1471.8</ele><time>2016-07-19T15:53:45Z</time></trkpt>
<trkpt lat="46.21307" lon="7.43629"><ele>1472.2</ele><time>2016-07-19T15:53:58Z</time></trkpt>
<trkpt lat="46.21317" lon="7.4363"><ele>1472.6</ele><time>2016-07-19T15:54:05Z</time></trkpt>
<trkpt lat="46.21317" lon="7.4365"><ele>1474.2</ele><time>2016-07-19T15:54:15Z</time></trkpt>
<trkpt lat="46.21317" lon="7.43652"><ele>1474.2</ele><time>2016-07-19T15:54:16Z</time></trkpt>
<trkpt lat="46.21312" lon="7.43658"><ele>1475</ele><time>2016-07-19T15:54:20Z</time></trkpt>
<trkpt lat="46.21309" lon="7.43662"><ele>1475.4</ele><time>2016-07-19T15:54:22Z</time></trkpt>
<trkpt lat="46.21306" lon="7.43666"><ele>1475.8</ele><time>2016-07-19T15:54:25Z</time></trkpt>
<trkpt lat="46.2129" lon="7.43682"><ele>1477</ele><time>2016-07-19T15:54:37Z</time></trkpt>
<trkpt lat="46.21277" lon="7.437"><ele>1478.4</ele><time>2016-07-19T15:54:49Z</time></trkpt>
<trkpt lat="46.21276" lon="7.43702"><ele>1478.6</ele><time>2016-07-19T15:54:50Z</time></trkpt>
<trkpt lat="46.21271" lon="7.43715"><ele>1479.4</ele><time>2016-07-19T15:54:57Z</time></trkpt>
<trkpt lat="46.21262" lon="7.43738"><ele>1480.6</ele><time>2016-07-19T15:55:09Z</time></trkpt>
<trkpt lat="46.21258" lon="7.43743"><ele>1481.2</ele><time>2016-07-19T15:55:12Z</time></trkpt>
<trkpt lat="46.21254" lon="7.43753"><ele>1482</ele><time>2016-07-19T15:55:17Z</time></trkpt>
<trkpt lat="46.21246" lon="7.43769"><ele>1483.4</ele><time>2016-07-19T15:55:26Z</time></trkpt>
<trkpt lat="46.21238" lon="7.43782"><ele>1484.8</ele><time>2016-07-19T15:55:34Z</time></trkpt>
<trkpt lat="46.2123" lon="7.43791"><ele>1485.8</ele><time>2016-07-19T15:55:41Z</time></trkpt>
<trkpt lat="46.21215" lon="7.43807"><ele>1487.2</ele><time>2016-07-19T15:55:53Z</time></trkpt>
<trkpt lat="46.21201" lon="7.43834"><ele>1488.6</ele><time>2016-07-19T15:56:09Z</time></trkpt>
<trkpt lat="46.2119" lon="7.43856"><ele>1490.2</ele><time>2016-07-19T15:56:21Z</time></trkpt>
<trkpt lat="46.21179" lon="7.43878"><ele>1492</ele><time>2016-07-19T15:56:33Z</time></trkpt>
<trkpt lat="46.21177" lon="7.43882"><ele>1492.4</ele><time>2016-07-19T15:56:35Z</time></trkpt>
<trkpt lat="46.21167" lon="7.43901"><ele>1494.4</ele><time>2016-07-19T15:56:46Z</time></trkpt>
<trkpt lat="46.21155" lon="7.4392"><ele>1497.8</ele><time>2016-07-19T15:56:59Z</time></trkpt>
<trkpt lat="46.2114" lon="7.43938"><ele>1498.8</ele><time>2016-07-19T15:57:12Z</time></trkpt>
<trkpt lat="46.21136" lon="7.43941"><ele>1499.8</ele><time>2016-07-19T15:57:15Z</time></trkpt>
<trkpt lat="46.21117" lon="7.43959"><ele>1502.4</ele><time>2016-07-19T15:57:30Z</time></trkpt>
<trkpt lat="46.21109" lon="7.43966"><ele>1503</ele><time>2016-07-19T15:57:36Z</time></trkpt>
<trkpt lat="46.21108" lon="7.43967"><ele>1503</ele><time>2016-07-19T15:57:37Z</time></trkpt>
<trkpt lat="46.21095" lon="7.43986"><ele>1504.6</ele><time>2016-07-19T15:57:50Z</time></trkpt>
<trkpt lat="46.21084" lon="7.43994"><ele>1505.8</ele><time>2016-07-19T15:57:58Z</time></trkpt>
<trkpt lat="46.2107" lon="7.44011"><ele>1507.4</ele><time>2016-07-19T15:58:10Z</time></trkpt>
<trkpt lat="46.21062" lon="7.44021"><ele>1508.4</ele><time>2016-07-19T15:58:17Z</time></trkpt>
<trkpt lat="46.21057" lon="7.44028"><ele>1509.2</ele><time>2016-07-19T15:58:21Z</time></trkpt>
<trkpt lat="46.21046" lon="7.44038"><ele>1510.4</ele><time>2016-07-19T15:58:29Z</time></trkpt>
<trkpt lat="46.21044" lon="7.44042"><ele>1510.4</ele><time>2016-07-19T15:58:31Z</time></trkpt>
<trkpt lat="46.2104" lon="7.44048"><ele>1510.8</ele><time>2016-07-19T15:58:35Z</time></trkpt>
<trkpt lat="46.21037" lon="7.44051"><ele>1511</ele><time>2016-07-19T15:58:37Z</time></trkpt>
<trkpt lat="46.21036" lon="7.44052"><ele>1511.2</ele><time>2016-07-19T15:58:38Z</time></trkpt>
<trkpt lat="46.21034" lon="7.44055"><ele>1511.4</ele><time>2016-07-19T15:58:40Z</time></trkpt>
<trkpt lat="46.21032" lon="7.44058"><ele>1511.6</ele><time>2016-07-19T15:58:42Z</time></trkpt>
<trkpt lat="46.2103" lon="7.44061"><ele>1511.6</ele><time>2016-07-19T15:58:44Z</time></trkpt>
<trkpt lat="46.21029" lon="7.44062"><ele>1511.8</ele><time>2016-07-19T15:58:45Z</time></trkpt>
<trkpt lat="46.21027" lon="7.44063"><ele>1511.8</ele><time>2016-07-19T15:58:46Z</time></trkpt>
<trkpt lat="46.21025" lon="7.44066"><ele>1511.8</ele><time>2016-07-19T15:58:48Z</time></trkpt>
<trkpt lat="46.21019" lon="7.44072"><ele>1511.6</ele><time>2016-07-19T15:58:53Z</time></trkpt>
<trkpt lat="46.21003" lon="7.44087"><ele>1513</ele><time>2016-07-19T15:59:05Z</time></trkpt>
<trkpt lat="46.20987" lon="7.44101"><ele>1514.2</ele><time>2016-07-19T15:59:17Z</time></trkpt>
<trkpt lat="46.2097" lon="7.4411"><ele>1516</ele><time>2016-07-19T15:59:29Z</time></trkpt>
<trkpt lat="46.20952" lon="7.44118"><ele>1518.2</ele><time>2016-07-19T15:59:41Z</time></trkpt>
<trkpt lat="46.20929" lon="7.44123"><ele>1520.8</ele><time>2016-07-19T15:59:56Z</time></trkpt>
<trkpt lat="46.2091" lon="7.44128"><ele>1522.4</ele><time>2016-07-19T16:00:08Z</time></trkpt>
<trkpt lat="46.20897" lon="7.44128"><ele>1524.2</ele><time>2016-07-19T16:00:16Z</time></trkpt>
<trkpt lat="46.20884" lon="7.44131"><ele>1526.4</ele><time>2016-07-19T16:00:26Z</time></trkpt>
<trkpt lat="46.20865" lon="7.44134"><ele>1529.4</ele><time>2016-07-19T16:00:39Z</time></trkpt>
<trkpt lat="46.2086" lon="7.44136"><ele>1530</ele><time>2016-07-19T16:00:42Z</time></trkpt>
<trkpt lat="46.20846" lon="7.44142"><ele>1531</ele><time>2016-07-19T16:00:51Z</time></trkpt>
<trkpt lat="46.20832" lon="7.44145"><ele>1531.6</ele><time>2016-07-19T16:01:01Z</time></trkpt>
<trkpt lat="46.20813" lon="7.44152"><ele>1531.8</ele><time>2016-07-19T16:01:16Z</time></trkpt>
<trkpt lat="46.20796" lon="7.44158"><ele>1531.4</ele><time>2016-07-19T16:01:28Z</time></trkpt>
<trkpt lat="46.20791" lon="7.44159"><ele>1531.6</ele><time>2016-07-19T16:01:32Z</time></trkpt>
<trkpt lat="46.20772" lon="7.44162"><ele>1531.6</ele><time>2016-07-19T16:01:44Z</time></trkpt>
<trkpt lat="46.20754" lon="7.44161"><ele>1533.6</ele><time>2016-07-19T16:01:55Z</time></trkpt>
<trkpt lat="46.20736" lon="7.44158"><ele>1535.8</ele><time>2016-07-19T16:02:05Z</time></trkpt>
<trkpt lat="46.20725" lon="7.44153"><ele>1537.6</ele><time>2016-07-19T16:02:12Z</time></trkpt>
<trkpt lat="46.20724" lon="7.44151"><ele>1537.6</ele><time>2016-07-19T16:02:13Z</time></trkpt>
<trkpt lat="46.20724" lon="7.44149"><ele>1536.4</ele><time>2016-07-19T16:02:21Z</time></trkpt>
<trkpt lat="46.20725" lon="7.44149"><ele>1536.2</ele><time>2016-07-19T16:02:27Z</time></trkpt>
<trkpt lat="46.20725" lon="7.44149"><ele>1536.6</ele><time>2016-07-19T16:02:41Z</time></trkpt>
<trkpt lat="46.20724" lon="7.4415"><ele>1537.8</ele><time>2016-07-19T16:03:00Z</time></trkpt>
<trkpt lat="46.20724" lon="7.4415"><ele>1536.6</ele><time>2016-07-19T16:03:20Z</time></trkpt>
<trkpt lat="46.20724" lon="7.4415"><ele>1536.4</ele><time>2016-07-19T16:03:24Z</time></trkpt>
<trkpt lat="46.20724" lon="7.4415"><ele>1536.4</ele><time>2016-07-19T16:03:25Z</time></trkpt>
<trkpt lat="46.20724" lon="7.4415"><ele>1536.4</ele><time>2016-07-19T16:03:26Z</time></trkpt>
<trkpt lat="46.20724" lon="7.4415"><ele>1536.4</ele><time>2016-07-19T16:03:27Z</time></trkpt>
<trkpt lat="46.20725" lon="7.4415"><ele>1536.4</ele><time>2016-07-19T16:03:28Z</time></trkpt>
<trkpt lat="46.2071" lon="7.44143"><ele>1536.8</ele><time>2016-07-19T16:03:42Z</time></trkpt>
<trkpt lat="46.20706" lon="7.44141"><ele>1536.8</ele><time>2016-07-19T16:03:44Z</time></trkpt>
<trkpt lat="46.20698" lon="7.44134"><ele>1537.4</ele><time>2016-07-19T16:03:49Z</time></trkpt>
<trkpt lat="46.20695" lon="7.44132"><ele>1537.8</ele><time>2016-07-19T16:03:51Z</time></trkpt>
<trkpt lat="46.20693" lon="7.4413"><ele>1538</ele><time>2016-07-19T16:03:52Z</time></trkpt>
<trkpt lat="46.20681" lon="7.4412"><ele>1539.6</ele><time>2016-07-19T16:04:00Z</time></trkpt>
<trkpt lat="46.20664" lon="7.44105"><ele>1542</ele><time>2016-07-19T16:04:10Z</time></trkpt>
<trkpt lat="46.20648" lon="7.44091"><ele>1544.6</ele><time>2016-07-19T16:04:20Z</time></trkpt>
<trkpt lat="46.20638" lon="7.44083"><ele>1546</ele><time>2016-07-19T16:04:26Z</time></trkpt>
<trkpt lat="46.20625" lon="7.44073"><ele>1547.2</ele><time>2016-07-19T16:04:34Z</time></trkpt>
<trkpt lat="46.20619" lon="7.44067"><ele>1547.8</ele><time>2016-07-19T16:04:38Z</time></trkpt>
<trkpt lat="46.20602" lon="7.44054"><ele>1549.4</ele><time>2016-07-19T16:04:49Z</time></trkpt>
<trkpt lat="46.20594" lon="7.44048"><ele>1550.4</ele><time>2016-07-19T16:04:54Z</time></trkpt>
<trkpt lat="46.20591" lon="7.44047"><ele>1550.8</ele><time>2016-07-19T16:04:56Z</time></trkpt>
<trkpt lat="46.20584" lon="7.44041"><ele>1551.4</ele><time>2016-07-19T16:05:01Z</time></trkpt>
<trkpt lat="46.20566" lon="7.4403"><ele>1552.8</ele><time>2016-07-19T16:05:13Z</time></trkpt>
<trkpt lat="46.20549" lon="7.44021"><ele>1554.4</ele><time>2016-07-19T16:05:23Z</time></trkpt>
<trkpt lat="46.20534" lon="7.4401"><ele>1555.2</ele><time>2016-07-19T16:05:32Z</time></trkpt>
<trkpt lat="46.20531" lon="7.44008"><ele>1555.4</ele><time>2016-07-19T16:05:34Z</time></trkpt>
<trkpt lat="46.20528" lon="7.44006"><ele>1555.4</ele><time>2016-07-19T16:05:36Z</time></trkpt>
<trkpt lat="46.20526" lon="7.44005"><ele>1555.6</ele><time>2016-07-19T16:05:37Z</time></trkpt>
<trkpt lat="46.20524" lon="7.44004"><ele>1555.6</ele><time>2016-07-19T16:05:38Z</time></trkpt>
<trkpt lat="46.20523" lon="7.44002"><ele>1555.8</ele><time>2016-07-19T16:05:39Z</time></trkpt>
<trkpt lat="46.20521" lon="7.44001"><ele>1556</ele><time>2016-07-19T16:05:40Z</time></trkpt>
<trkpt lat="46.20518" lon="7.44"><ele>1556</ele><time>2016-07-19T16:05:42Z</time></trkpt>
<trkpt lat="46.2051" lon="7.43996"><ele>1556.2</ele><time>2016-07-19T16:05:46Z</time></trkpt>
<trkpt lat="46.20493" lon="7.43987"><ele>1557.6</ele><time>2016-07-19T16:05:56Z</time></trkpt>
<trkpt lat="46.20479" lon="7.43979"><ele>1558.2</ele><time>2016-07-19T16:06:05Z</time></trkpt>
<trkpt lat="46.20466" lon="7.43971"><ele>1559</ele><time>2016-07-19T16:06:13Z</time></trkpt>
<trkpt lat="46.20459" lon="7.43965"><ele>1560.2</ele><time>2016-07-19T16:06:18Z</time></trkpt>
<trkpt lat="46.20451" lon="7.4396"><ele>1562</ele><time>2016-07-19T16:06:24Z</time></trkpt>
<trkpt lat="46.20443" lon="7.43969"><ele>1564</ele><time>2016-07-19T16:06:32Z</time></trkpt>
<trkpt lat="46.20449" lon="7.43983"><ele>1565.6</ele><time>2016-07-19T16:06:41Z</time></trkpt>
<trkpt lat="46.20461" lon="7.43996"><ele>1567.6</ele><time>2016-07-19T16:06:53Z</time></trkpt>
<trkpt lat="46.20464" lon="7.43997"><ele>1568</ele><time>2016-07-19T16:06:55Z</time></trkpt>
<trkpt lat="46.20467" lon="7.43999"><ele>1568.4</ele><time>2016-07-19T16:06:58Z</time></trkpt>
<trkpt lat="46.20471" lon="7.44004"><ele>1569.4</ele><time>2016-07-19T16:07:03Z</time></trkpt>
<trkpt lat="46.20484" lon="7.44018"><ele>1571</ele><time>2016-07-19T16:07:14Z</time></trkpt>
<trkpt lat="46.20499" lon="7.44035"><ele>1572.6</ele><time>2016-07-19T16:07:27Z</time></trkpt>
<trkpt lat="46.20503" lon="7.44039"><ele>1573</ele><time>2016-07-19T16:07:30Z</time></trkpt>
<trkpt lat="46.20511" lon="7.44045"><ele>1573.8</ele><time>2016-07-19T16:07:37Z</time></trkpt>
<trkpt lat="46.20525" lon="7.4406"><ele>1575.6</ele><time>2016-07-19T16:07:51Z</time></trkpt>
<trkpt lat="46.20536" lon="7.44074"><ele>1575.8</ele><time>2016-07-19T16:08:01Z</time></trkpt>
<trkpt lat="46.20547" lon="7.4409"><ele>1576</ele><time>2016-07-19T16:08:12Z</time></trkpt>
<trkpt lat="46.20561" lon="7.4411"><ele>1576.8</ele><time>2016-07-19T16:08:24Z</time></trkpt>
<trkpt lat="46.20569" lon="7.44133"><ele>1578</ele><time>2016-07-19T16:08:36Z</time></trkpt>
<trkpt lat="46.2057" lon="7.44142"><ele>1578.4</ele><time>2016-07-19T16:08:41Z</time></trkpt>
<trkpt lat="46.20573" lon="7.44154"><ele>1578.8</ele><time>2016-07-19T16:08:48Z</time></trkpt>
<trkpt lat="46.20579" lon="7.44176"><ele>1580.4</ele><time>2016-07-19T16:09:00Z</time></trkpt>
<trkpt lat="46.20582" lon="7.44203"><ele>1582.2</ele><time>2016-07-19T16:09:13Z</time></trkpt>
<trkpt lat="46.20583" lon="7.4423"><ele>1583.8</ele><time>2016-07-19T16:09:27Z</time></trkpt>
<trkpt lat="46.20588" lon="7.44262"><ele>1584.8</ele><time>2016-07-19T16:09:43Z</time></trkpt>
<trkpt lat="46.20595" lon="7.44285"><ele>1585.4</ele><time>2016-07-19T16:09:55Z</time></trkpt>
<trkpt lat="46.20607" lon="7.44307"><ele>1587.2</ele><time>2016-07-19T16:10:08Z</time></trkpt>
<trkpt lat="46.20619" lon="7.44327"><ele>1589.4</ele><time>2016-07-19T16:10:22Z</time></trkpt>
<trkpt lat="46.20622" lon="7.44332"><ele>1591</ele><time>2016-07-19T16:10:27Z</time></trkpt>
<trkpt lat="46.20638" lon="7.44344"><ele>1596.8</ele><time>2016-07-19T16:10:43Z</time></trkpt>
<trkpt lat="46.20656" lon="7.44353"><ele>1603.2</ele><time>2016-07-19T16:11:00Z</time></trkpt>
<trkpt lat="46.20663" lon="7.44357"><ele>1605.4</ele><time>2016-07-19T16:11:06Z</time></trkpt>
<trkpt lat="46.20676" lon="7.4437"><ele>1609</ele><time>2016-07-19T16:11:18Z</time></trkpt>
<trkpt lat="46.20693" lon="7.44394"><ele>1612.8</ele><time>2016-07-19T16:11:35Z</time></trkpt>
<trkpt lat="46.20697" lon="7.444"><ele>1612.8</ele><time>2016-07-19T16:11:39Z</time></trkpt>
<trkpt lat="46.207" lon="7.44405"><ele>1613</ele><time>2016-07-19T16:11:42Z</time></trkpt>
<trkpt lat="46.20702" lon="7.44409"><ele>1613</ele><time>2016-07-19T16:11:44Z</time></trkpt>
<trkpt lat="46.20706" lon="7.44419"><ele>1612.8</ele><time>2016-07-19T16:11:49Z</time></trkpt>
<trkpt lat="46.20719" lon="7.44438"><ele>1612.4</ele><time>2016-07-19T16:12:02Z</time></trkpt>
<trkpt lat="46.20727" lon="7.44453"><ele>1612.8</ele><time>2016-07-19T16:12:12Z</time></trkpt>
<trkpt lat="46.20732" lon="7.44468"><ele>1613.6</ele><time>2016-07-19T16:12:21Z</time></trkpt>
<trkpt lat="46.20734" lon="7.44474"><ele>1613.8</ele><time>2016-07-19T16:12:25Z</time></trkpt>
<trkpt lat="46.20721" lon="7.44477"><ele>1615.4</ele><time>2016-07-19T16:12:37Z</time></trkpt>
<trkpt lat="46.20716" lon="7.4447"><ele>1616.2</ele><time>2016-07-19T16:12:42Z</time></trkpt>
<trkpt lat="46.20712" lon="7.44461"><ele>1617.8</ele><time>2016-07-19T16:12:48Z</time></trkpt>
<trkpt lat="46.20696" lon="7.44447"><ele>1621</ele><time>2016-07-19T16:13:03Z</time></trkpt>
<trkpt lat="46.20682" lon="7.44443"><ele>1622.4</ele><time>2016-07-19T16:13:16Z</time></trkpt>
<trkpt lat="46.20675" lon="7.44443"><ele>1622.8</ele><time>2016-07-19T16:13:22Z</time></trkpt>
<trkpt lat="46.20671" lon="7.44443"><ele>1623</ele><time>2016-07-19T16:13:25Z</time></trkpt>
<trkpt lat="46.20652" lon="7.44441"><ele>1624.6</ele><time>2016-07-19T16:13:40Z</time></trkpt>
<trkpt lat="46.20634" lon="7.44443"><ele>1625.8</ele><time>2016-07-19T16:13:55Z</time></trkpt>
<trkpt lat="46.20615" lon="7.44446"><ele>1627.2</ele><time>2016-07-19T16:14:10Z</time></trkpt>
<trkpt lat="46.20605" lon="7.44446"><ele>1628.2</ele><time>2016-07-19T16:14:19Z</time></trkpt>
<trkpt lat="46.20587" lon="7.44453"><ele>1630.4</ele><time>2016-07-19T16:14:34Z</time></trkpt>
<trkpt lat="46.20564" lon="7.44456"><ele>1632.6</ele><time>2016-07-19T16:14:52Z</time></trkpt>
<trkpt lat="46.20558" lon="7.44457"><ele>1633.2</ele><time>2016-07-19T16:14:56Z</time></trkpt>
<trkpt lat="46.20553" lon="7.44457"><ele>1633.8</ele><time>2016-07-19T16:14:59Z</time></trkpt>
<trkpt lat="46.20534" lon="7.44459"><ele>1635.2</ele><time>2016-07-19T16:15:12Z</time></trkpt>
<trkpt lat="46.20524" lon="7.4446"><ele>1636.2</ele><time>2016-07-19T16:15:20Z</time></trkpt>
<trkpt lat="46.20506" lon="7.44452"><ele>1638.6</ele><time>2016-07-19T16:15:35Z</time></trkpt>
<trkpt lat="46.2049" lon="7.44441"><ele>1640.4</ele><time>2016-07-19T16:15:49Z</time></trkpt>
<trkpt lat="46.20467" lon="7.44427"><ele>1641.8</ele><time>2016-07-19T16:16:08Z</time></trkpt>
<trkpt lat="46.20465" lon="7.44426"><ele>1642</ele><time>2016-07-19T16:16:10Z</time></trkpt>
<trkpt lat="46.20458" lon="7.44424"><ele>1642.6</ele><time>2016-07-19T16:16:16Z</time></trkpt>
<trkpt lat="46.20441" lon="7.44413"><ele>1645.6</ele><time>2016-07-19T16:16:31Z</time></trkpt>
<trkpt lat="46.20431" lon="7.44391"><ele>1649.2</ele><time>2016-07-19T16:16:46Z</time></trkpt>
<trkpt lat="46.20421" lon="7.44369"><ele>1652</ele><time>2016-07-19T16:17:00Z</time></trkpt>
<trkpt lat="46.20408" lon="7.4435"><ele>1654.2</ele><time>2016-07-19T16:17:13Z</time></trkpt>
<trkpt lat="46.20394" lon="7.44332"><ele>1656.4</ele><time>2016-07-19T16:17:28Z</time></trkpt>
<trkpt lat="46.20378" lon="7.44318"><ele>1658</ele><time>2016-07-19T16:17:41Z</time></trkpt>
<trkpt lat="46.20361" lon="7.44308"><ele>1660</ele><time>2016-07-19T16:17:56Z</time></trkpt>
<trkpt lat="46.2036" lon="7.44308"><ele>1660</ele><time>2016-07-19T16:17:57Z</time></trkpt>
<trkpt lat="46.20354" lon="7.44305"><ele>1660.6</ele><time>2016-07-19T16:18:02Z</time></trkpt>
<trkpt lat="46.20343" lon="7.44286"><ele>1663.4</ele><time>2016-07-19T16:18:18Z</time></trkpt>
<trkpt lat="46.20336" lon="7.44277"><ele>1665.2</ele><time>2016-07-19T16:18:27Z</time></trkpt>
<trkpt lat="46.20329" lon="7.4427"><ele>1666.2</ele><time>2016-07-19T16:18:33Z</time></trkpt>
<trkpt lat="46.20325" lon="7.44268"><ele>1666.6</ele><time>2016-07-19T16:18:36Z</time></trkpt>
<trkpt lat="46.20323" lon="7.44265"><ele>1667</ele><time>2016-07-19T16:18:38Z</time></trkpt>
<trkpt lat="46.2031" lon="7.44254"><ele>1668.8</ele><time>2016-07-19T16:18:48Z</time></trkpt>
<trkpt lat="46.20293" lon="7.44243"><ele>1671.2</ele><time>2016-07-19T16:19:03Z</time></trkpt>
<trkpt lat="46.20287" lon="7.44236"><ele>1671.2</ele><time>2016-07-19T16:19:09Z</time></trkpt>
<trkpt lat="46.20282" lon="7.44228"><ele>1671.4</ele><time>2016-07-19T16:19:14Z</time></trkpt>
<trkpt lat="46.20265" lon="7.44206"><ele>1674.8</ele><time>2016-07-19T16:19:29Z</time></trkpt>
<trkpt lat="46.2025" lon="7.442"><ele>1675.2</ele><time>2016-07-19T16:19:38Z</time></trkpt>
<trkpt lat="46.20238" lon="7.44208"><ele>1675</ele><time>2016-07-19T16:19:45Z</time></trkpt>
<trkpt lat="46.20238" lon="7.44209"><ele>1675.2</ele><time>2016-07-19T16:19:46Z</time></trkpt>
<trkpt lat="46.20234" lon="7.44217"><ele>1675.6</ele><time>2016-07-19T16:19:51Z</time></trkpt>
<trkpt lat="46.20226" lon="7.44228"><ele>1675.6</ele><time>2016-07-19T16:20:00Z</time></trkpt>
<trkpt lat="46.20209" lon="7.44235"><ele>1677.6</ele><time>2016-07-19T16:20:13Z</time></trkpt>
<trkpt lat="46.20193" lon="7.44236"><ele>1680.4</ele><time>2016-07-19T16:20:26Z</time></trkpt>
<trkpt lat="46.20191" lon="7.44236"><ele>1680.6</ele><time>2016-07-19T16:20:27Z</time></trkpt>
<trkpt lat="46.20189" lon="7.44236"><ele>1680.8</ele><time>2016-07-19T16:20:29Z</time></trkpt>
<trkpt lat="46.20188" lon="7.44236"><ele>1681</ele><time>2016-07-19T16:20:30Z</time></trkpt>
<trkpt lat="46.20174" lon="7.44243"><ele>1681.2</ele><time>2016-07-19T16:20:40Z</time></trkpt>
<trkpt lat="46.20161" lon="7.44261"><ele>1684</ele><time>2016-07-19T16:20:55Z</time></trkpt>
<trkpt lat="46.2016" lon="7.44264"><ele>1683.8</ele><time>2016-07-19T16:20:57Z</time></trkpt>
<trkpt lat="46.20158" lon="7.44268"><ele>1683.6</ele><time>2016-07-19T16:21:00Z</time></trkpt>
<trkpt lat="46.20156" lon="7.44278"><ele>1683.8</ele><time>2016-07-19T16:21:08Z</time></trkpt>
<trkpt lat="46.20155" lon="7.44284"><ele>1683.8</ele><time>2016-07-19T16:21:12Z</time></trkpt>
<trkpt lat="46.2015" lon="7.44296"><ele>1684.6</ele><time>2016-07-19T16:21:21Z</time></trkpt>
<trkpt lat="46.20144" lon="7.44303"><ele>1685</ele><time>2016-07-19T16:21:27Z</time></trkpt>
<trkpt lat="46.20142" lon="7.44309"><ele>1686.6</ele><time>2016-07-19T16:21:31Z</time></trkpt>
<trkpt lat="46.2014" lon="7.44317"><ele>1686.8</ele><time>2016-07-19T16:21:35Z</time></trkpt>
<trkpt lat="46.20138" lon="7.44325"><ele>1687</ele><time>2016-07-19T16:21:40Z</time></trkpt>
<trkpt lat="46.20134" lon="7.44335"><ele>1687.8</ele><time>2016-07-19T16:21:47Z</time></trkpt>
<trkpt lat="46.20131" lon="7.44343"><ele>1688.8</ele><time>2016-07-19T16:21:52Z</time></trkpt>
<trkpt lat="46.20128" lon="7.4435"><ele>1690</ele><time>2016-07-19T16:21:58Z</time></trkpt>
<trkpt lat="46.20117" lon="7.44371"><ele>1692.4</ele><time>2016-07-19T16:22:15Z</time></trkpt>
<trkpt lat="46.20113" lon="7.44391"><ele>1693.2</ele><time>2016-07-19T16:22:28Z</time></trkpt>
<trkpt lat="46.20111" lon="7.44395"><ele>1693.4</ele><time>2016-07-19T16:22:31Z</time></trkpt>
<trkpt lat="46.20108" lon="7.4442"><ele>1695.4</ele><time>2016-07-19T16:22:47Z</time></trkpt>
<trkpt lat="46.20108" lon="7.44447"><ele>1697.8</ele><time>2016-07-19T16:23:02Z</time></trkpt>
<trkpt lat="46.20107" lon="7.44452"><ele>1698.2</ele><time>2016-07-19T16:23:06Z</time></trkpt>
<trkpt lat="46.20103" lon="7.44461"><ele>1699.2</ele><time>2016-07-19T16:23:13Z</time></trkpt>
<trkpt lat="46.20088" lon="7.44477"><ele>1701.4</ele><time>2016-07-19T16:23:28Z</time></trkpt>
<trkpt lat="46.20081" lon="7.44484"><ele>1702.6</ele><time>2016-07-19T16:23:34Z</time></trkpt>
<trkpt lat="46.2008" lon="7.44484"><ele>1702.6</ele><time>2016-07-19T16:23:35Z</time></trkpt>
<trkpt lat="46.20071" lon="7.44492"><ele>1703.6</ele><time>2016-07-19T16:23:42Z</time></trkpt>
<trkpt lat="46.20065" lon="7.44507"><ele>1704.4</ele><time>2016-07-19T16:23:51Z</time></trkpt>
<trkpt lat="46.2006" lon="7.44517"><ele>1705.2</ele><time>2016-07-19T16:23:58Z</time></trkpt>
<trkpt lat="46.20059" lon="7.44522"><ele>1705.4</ele><time>2016-07-19T16:24:01Z</time></trkpt>
<trkpt lat="46.20048" lon="7.44543"><ele>1707.2</ele><time>2016-07-19T16:24:18Z</time></trkpt>
<trkpt lat="46.20047" lon="7.44547"><ele>1707.8</ele><time>2016-07-19T16:24:21Z</time></trkpt>
<trkpt lat="46.20038" lon="7.4457"><ele>1709.6</ele><time>2016-07-19T16:24:37Z</time></trkpt>
<trkpt lat="46.20036" lon="7.44578"><ele>1710.6</ele><time>2016-07-19T16:24:42Z</time></trkpt>
<trkpt lat="46.20036" lon="7.44597"><ele>1711.4</ele><time>2016-07-19T16:24:52Z</time></trkpt>
<trkpt lat="46.20036" lon="7.44599"><ele>1711.6</ele><time>2016-07-19T16:24:53Z</time></trkpt>
<trkpt lat="46.20037" lon="7.44626"><ele>1713.2</ele><time>2016-07-19T16:25:08Z</time></trkpt>
<trkpt lat="46.20036" lon="7.44646"><ele>1714</ele><time>2016-07-19T16:25:19Z</time></trkpt>
<trkpt lat="46.20034" lon="7.44655"><ele>1714.2</ele><time>2016-07-19T16:25:26Z</time></trkpt>
<trkpt lat="46.2003" lon="7.44681"><ele>1716.2</ele><time>2016-07-19T16:25:39Z</time></trkpt>
<trkpt lat="46.20024" lon="7.44702"><ele>1717.6</ele><time>2016-07-19T16:25:48Z</time></trkpt>
<trkpt lat="46.20019" lon="7.44727"><ele>1720</ele><time>2016-07-19T16:25:58Z</time></trkpt>
<trkpt lat="46.20015" lon="7.44741"><ele>1720.6</ele><time>2016-07-19T16:26:03Z</time></trkpt>
<trkpt lat="46.20014" lon="7.44744"><ele>1720.6</ele><time>2016-07-19T16:26:04Z</time></trkpt>
<trkpt lat="46.20011" lon="7.4475"><ele>1720.8</ele><time>2016-07-19T16:26:06Z</time></trkpt>
<trkpt lat="46.20004" lon="7.44774"><ele>1722.4</ele><time>2016-07-19T16:26:14Z</time></trkpt>
<trkpt lat="46.20002" lon="7.44789"><ele>1724.2</ele><time>2016-07-19T16:26:22Z</time></trkpt>
<trkpt lat="46.20012" lon="7.44818"><ele>1726.2</ele><time>2016-07-19T16:26:42Z</time></trkpt>
<trkpt lat="46.20019" lon="7.44838"><ele>1728.2</ele><time>2016-07-19T16:26:54Z</time></trkpt>
<trkpt lat="46.20019" lon="7.4484"><ele>1728.4</ele><time>2016-07-19T16:26:55Z</time></trkpt>
<trkpt lat="46.20023" lon="7.44854"><ele>1728.2</ele><time>2016-07-19T16:27:04Z</time></trkpt>
<trkpt lat="46.20027" lon="7.44882"><ele>1729.8</ele><time>2016-07-19T16:27:18Z</time></trkpt>
<trkpt lat="46.20028" lon="7.44909"><ele>1732.2</ele><time>2016-07-19T16:27:30Z</time></trkpt>
<trkpt lat="46.20025" lon="7.44925"><ele>1733.4</ele><time>2016-07-19T16:27:39Z</time></trkpt>
<trkpt lat="46.20019" lon="7.44951"><ele>1735.8</ele><time>2016-07-19T16:27:52Z</time></trkpt>
<trkpt lat="46.20018" lon="7.44952"><ele>1736</ele><time>2016-07-19T16:27:53Z</time></trkpt>
<trkpt lat="46.20014" lon="7.44961"><ele>1737.4</ele><time>2016-07-19T16:27:58Z</time></trkpt>
<trkpt lat="46.2001" lon="7.44967"><ele>1738.4</ele><time>2016-07-19T16:28:02Z</time></trkpt>
<trkpt lat="46.19991" lon="7.44984"><ele>1740.8</ele><time>2016-07-19T16:28:15Z</time></trkpt>
<trkpt lat="46.19971" lon="7.44993"><ele>1740.4</ele><time>2016-07-19T16:28:21Z</time></trkpt>
<trkpt lat="46.19952" lon="7.45007"><ele>1738.6</ele><time>2016-07-19T16:28:26Z</time></trkpt>
<trkpt lat="46.19937" lon="7.45014"><ele>1737</ele><time>2016-07-19T16:28:29Z</time></trkpt>
<trkpt lat="46.19917" lon="7.45017"><ele>1734</ele><time>2016-07-19T16:28:33Z</time></trkpt>
<trkpt lat="46.19912" lon="7.45018"><ele>1733.4</ele><time>2016-07-19T16:28:34Z</time></trkpt>
<trkpt lat="46.19904" lon="7.45021"><ele>1731.8</ele><time>2016-07-19T16:28:36Z</time></trkpt>
<trkpt lat="46.19889" lon="7.45037"><ele>1728</ele><time>2016-07-19T16:28:40Z</time></trkpt>
<trkpt lat="46.19885" lon="7.45042"><ele>1727</ele><time>2016-07-19T16:28:41Z</time></trkpt>
<trkpt lat="46.19876" lon="7.45057"><ele>1724.2</ele><time>2016-07-19T16:28:44Z</time></trkpt>
<trkpt lat="46.19863" lon="7.45076"><ele>1721</ele><time>2016-07-19T16:28:48Z</time></trkpt>
<trkpt lat="46.19855" lon="7.45085"><ele>1719</ele><time>2016-07-19T16:28:50Z</time></trkpt>
<trkpt lat="46.19852" lon="7.4509"><ele>1718.4</ele><time>2016-07-19T16:28:51Z</time></trkpt>
<trkpt lat="46.1984" lon="7.45112"><ele>1714.4</ele><time>2016-07-19T16:28:55Z</time></trkpt>
<trkpt lat="46.19836" lon="7.45117"><ele>1713.8</ele><time>2016-07-19T16:28:56Z</time></trkpt>
<trkpt lat="46.19827" lon="7.45138"><ele>1711.6</ele><time>2016-07-19T16:29:00Z</time></trkpt>
<trkpt lat="46.19815" lon="7.45164"><ele>1709</ele><time>2016-07-19T16:29:05Z</time></trkpt>
<trkpt lat="46.19813" lon="7.45169"><ele>1708.8</ele><time>2016-07-19T16:29:06Z</time></trkpt>
<trkpt lat="46.19806" lon="7.4518"><ele>1707.2</ele><time>2016-07-19T16:29:09Z</time></trkpt>
<trkpt lat="46.19802" lon="7.45188"><ele>1706.2</ele><time>2016-07-19T16:29:11Z</time></trkpt>
<trkpt lat="46.19794" lon="7.45203"><ele>1703.6</ele><time>2016-07-19T16:29:15Z</time></trkpt>
<trkpt lat="46.19791" lon="7.4521"><ele>1702.8</ele><time>2016-07-19T16:29:17Z</time></trkpt>
<trkpt lat="46.19788" lon="7.45216"><ele>1702.6</ele><time>2016-07-19T16:29:19Z</time></trkpt>
<trkpt lat="46.19783" lon="7.45226"><ele>1703.6</ele><time>2016-07-19T16:29:23Z</time></trkpt>
<trkpt lat="46.19782" lon="7.45228"><ele>1703.4</ele><time>2016-07-19T16:29:24Z</time></trkpt>
<trkpt lat="46.19768" lon="7.45246"><ele>1704.4</ele><time>2016-07-19T16:29:33Z</time></trkpt>
<trkpt lat="46.19752" lon="7.45263"><ele>1704.4</ele><time>2016-07-19T16:29:40Z</time></trkpt>
<trkpt lat="46.19734" lon="7.45285"><ele>1704</ele><time>2016-07-19T16:29:47Z</time></trkpt>
<trkpt lat="46.19722" lon="7.45309"><ele>1704.4</ele><time>2016-07-19T16:29:53Z</time></trkpt>
<trkpt lat="46.19715" lon="7.45324"><ele>1704</ele><time>2016-07-19T16:29:57Z</time></trkpt>
<trkpt lat="46.19714" lon="7.45329"><ele>1703.8</ele><time>2016-07-19T16:29:58Z</time></trkpt>
<trkpt lat="46.19705" lon="7.45351"><ele>1700.8</ele><time>2016-07-19T16:30:04Z</time></trkpt>
<trkpt lat="46.19698" lon="7.45366"><ele>1700.4</ele><time>2016-07-19T16:30:08Z</time></trkpt>
<trkpt lat="46.19691" lon="7.45383"><ele>1699.2</ele><time>2016-07-19T16:30:13Z</time></trkpt>
<trkpt lat="46.19685" lon="7.45402"><ele>1697.4</ele><time>2016-07-19T16:30:18Z</time></trkpt>
<trkpt lat="46.19673" lon="7.45425"><ele>1694.6</ele><time>2016-07-19T16:30:25Z</time></trkpt>
<trkpt lat="46.19667" lon="7.45449"><ele>1692</ele><time>2016-07-19T16:30:31Z</time></trkpt>
<trkpt lat="46.19667" lon="7.45485"><ele>1680.8</ele><time>2016-07-19T16:30:38Z</time></trkpt>
<trkpt lat="46.19668" lon="7.45516"><ele>1676.8</ele><time>2016-07-19T16:30:45Z</time></trkpt>
<trkpt lat="46.19674" lon="7.45544"><ele>1672.8</ele><time>2016-07-19T16:30:52Z</time></trkpt>
<trkpt lat="46.19677" lon="7.45564"><ele>1671.2</ele><time>2016-07-19T16:30:57Z</time></trkpt>
<trkpt lat="46.19678" lon="7.45587"><ele>1667.2</ele><time>2016-07-19T16:31:04Z</time></trkpt>
<trkpt lat="46.19676" lon="7.45617"><ele>1664.6</ele><time>2016-07-19T16:31:12Z</time></trkpt>
<trkpt lat="46.19672" lon="7.45643"><ele>1663</ele><time>2016-07-19T16:31:18Z</time></trkpt>
<trkpt lat="46.19662" lon="7.45665"><ele>1662.4</ele><time>2016-07-19T16:31:22Z</time></trkpt>
<trkpt lat="46.19651" lon="7.45686"><ele>1662.8</ele><time>2016-07-19T16:31:25Z</time></trkpt>
<trkpt lat="46.19648" lon="7.45693"><ele>1662.4</ele><time>2016-07-19T16:31:26Z</time></trkpt>
<trkpt lat="46.19641" lon="7.4572"><ele>1659.8</ele><time>2016-07-19T16:31:29Z</time></trkpt>
<trkpt lat="46.19637" lon="7.45736"><ele>1657.2</ele><time>2016-07-19T16:31:31Z</time></trkpt>
<trkpt lat="46.19635" lon="7.45744"><ele>1655.4</ele><time>2016-07-19T16:31:32Z</time></trkpt>
<trkpt lat="46.19635" lon="7.45752"><ele>1654.4</ele><time>2016-07-19T16:31:33Z</time></trkpt>
<trkpt lat="46.19638" lon="7.45786"><ele>1649.2</ele><time>2016-07-19T16:31:37Z</time></trkpt>
<trkpt lat="46.19639" lon="7.45793"><ele>1649.8</ele><time>2016-07-19T16:31:38Z</time></trkpt>
<trkpt lat="46.19639" lon="7.458"><ele>1649.6</ele><time>2016-07-19T16:31:39Z</time></trkpt>
<trkpt lat="46.19627" lon="7.45791"><ele>1643.2</ele><time>2016-07-19T16:31:44Z</time></trkpt>
<trkpt lat="46.19626" lon="7.45783"><ele>1642.6</ele><time>2016-07-19T16:31:45Z</time></trkpt>
<trkpt lat="46.19625" lon="7.45774"><ele>1641.8</ele><time>2016-07-19T16:31:46Z</time></trkpt>
<trkpt lat="46.19622" lon="7.45744"><ele>1639.2</ele><time>2016-07-19T16:31:49Z</time></trkpt>
<trkpt lat="46.19616" lon="7.45715"><ele>1636.8</ele><time>2016-07-19T16:31:52Z</time></trkpt>
<trkpt lat="46.19611" lon="7.45684"><ele>1634.8</ele><time>2016-07-19T16:31:55Z</time></trkpt>
<trkpt lat="46.19611" lon="7.45655"><ele>1633.8</ele><time>2016-07-19T16:31:58Z</time></trkpt>
<trkpt lat="46.19616" lon="7.45627"><ele>1634</ele><time>2016-07-19T16:32:01Z</time></trkpt>
<trkpt lat="46.19619" lon="7.45609"><ele>1633.4</ele><time>2016-07-19T16:32:03Z</time></trkpt>
<trkpt lat="46.1962" lon="7.45582"><ele>1632.6</ele><time>2016-07-19T16:32:06Z</time></trkpt>
<trkpt lat="46.1962" lon="7.45574"><ele>1632.2</ele><time>2016-07-19T16:32:07Z</time></trkpt>
<trkpt lat="46.19623" lon="7.45557"><ele>1631.4</ele><time>2016-07-19T16:32:09Z</time></trkpt>
<trkpt lat="46.19625" lon="7.4554"><ele>1631.2</ele><time>2016-07-19T16:32:11Z</time></trkpt>
<trkpt lat="46.19625" lon="7.45513"><ele>1630.4</ele><time>2016-07-19T16:32:14Z</time></trkpt>
<trkpt lat="46.19624" lon="7.45505"><ele>1630.2</ele><time>2016-07-19T16:32:15Z</time></trkpt>
<trkpt lat="46.19619" lon="7.45479"><ele>1629.6</ele><time>2016-07-19T16:32:18Z</time></trkpt>
<trkpt lat="46.19614" lon="7.45451"><ele>1629.4</ele><time>2016-07-19T16:32:21Z</time></trkpt>
<trkpt lat="46.19613" lon="7.4544"><ele>1629.4</ele><time>2016-07-19T16:32:22Z</time></trkpt>
<trkpt lat="46.1961" lon="7.45408"><ele>1625.2</ele><time>2016-07-19T16:32:25Z</time></trkpt>
<trkpt lat="46.19607" lon="7.45378"><ele>1623.4</ele><time>2016-07-19T16:32:28Z</time></trkpt>
<trkpt lat="46.19608" lon="7.45347"><ele>1622.2</ele><time>2016-07-19T16:32:31Z</time></trkpt>
<trkpt lat="46.1961" lon="7.45314"><ele>1621.2</ele><time>2016-07-19T16:32:34Z</time></trkpt>
<trkpt lat="46.19615" lon="7.45282"><ele>1619.4</ele><time>2016-07-19T16:32:37Z</time></trkpt>
<trkpt lat="46.19621" lon="7.45247"><ele>1618.8</ele><time>2016-07-19T16:32:40Z</time></trkpt>
<trkpt lat="46.19624" lon="7.45235"><ele>1618.6</ele><time>2016-07-19T16:32:41Z</time></trkpt>
<trkpt lat="46.19631" lon="7.45198"><ele>1617.6</ele><time>2016-07-19T16:32:44Z</time></trkpt>
<trkpt lat="46.19639" lon="7.45163"><ele>1616.2</ele><time>2016-07-19T16:32:47Z</time></trkpt>
<trkpt lat="46.19646" lon="7.45127"><ele>1615.6</ele><time>2016-07-19T16:32:50Z</time></trkpt>
<trkpt lat="46.19656" lon="7.45091"><ele>1613.6</ele><time>2016-07-19T16:32:53Z</time></trkpt>
<trkpt lat="46.19666" lon="7.45056"><ele>1612.4</ele><time>2016-07-19T16:32:56Z</time></trkpt>
<trkpt lat="46.19674" lon="7.45034"><ele>1611.8</ele><time>2016-07-19T16:32:58Z</time></trkpt>
<trkpt lat="46.19691" lon="7.45007"><ele>1610.8</ele><time>2016-07-19T16:33:01Z</time></trkpt>
<trkpt lat="46.19697" lon="7.44999"><ele>1610.4</ele><time>2016-07-19T16:33:02Z</time></trkpt>
<trkpt lat="46.19704" lon="7.44992"><ele>1610</ele><time>2016-07-19T16:33:03Z</time></trkpt>
<trkpt lat="46.19719" lon="7.44979"><ele>1609</ele><time>2016-07-19T16:33:05Z</time></trkpt>
<trkpt lat="46.19727" lon="7.44974"><ele>1609</ele><time>2016-07-19T16:33:06Z</time></trkpt>
<trkpt lat="46.19752" lon="7.44958"><ele>1607.4</ele><time>2016-07-19T16:33:09Z</time></trkpt>
<trkpt lat="46.19773" lon="7.44937"><ele>1607.4</ele><time>2016-07-19T16:33:12Z</time></trkpt>
<trkpt lat="46.19787" lon="7.44909"><ele>1607.8</ele><time>2016-07-19T16:33:15Z</time></trkpt>
<trkpt lat="46.1979" lon="7.449"><ele>1608</ele><time>2016-07-19T16:33:16Z</time></trkpt>
<trkpt lat="46.198" lon="7.44872"><ele>1607</ele><time>2016-07-19T16:33:19Z</time></trkpt>
<trkpt lat="46.19803" lon="7.44863"><ele>1606.6</ele><time>2016-07-19T16:33:20Z</time></trkpt>
<trkpt lat="46.19814" lon="7.44839"><ele>1606.8</ele><time>2016-07-19T16:33:23Z</time></trkpt>
<trkpt lat="46.19824" lon="7.44817"><ele>1605.8</ele><time>2016-07-19T16:33:26Z</time></trkpt>
<trkpt lat="46.19837" lon="7.4479"><ele>1604.8</ele><time>2016-07-19T16:33:30Z</time></trkpt>
<trkpt lat="46.19843" lon="7.44776"><ele>1604.8</ele><time>2016-07-19T16:33:32Z</time></trkpt>
<trkpt lat="46.19844" lon="7.44744"><ele>1604</ele><time>2016-07-19T16:33:36Z</time></trkpt>
<trkpt lat="46.19844" lon="7.44736"><ele>1603.2</ele><time>2016-07-19T16:33:37Z</time></trkpt>
<trkpt lat="46.19841" lon="7.44709"><ele>1602.4</ele><time>2016-07-19T16:33:40Z</time></trkpt>
<trkpt lat="46.19837" lon="7.4468"><ele>1600.8</ele><time>2016-07-19T16:33:43Z</time></trkpt>
<trkpt lat="46.19828" lon="7.44648"><ele>1600.2</ele><time>2016-07-19T16:33:46Z</time></trkpt>
<trkpt lat="46.19818" lon="7.44615"><ele>1599.8</ele><time>2016-07-19T16:33:49Z</time></trkpt>
<trkpt lat="46.19812" lon="7.44591"><ele>1597.6</ele><time>2016-07-19T16:33:51Z</time></trkpt>
<trkpt lat="46.19809" lon="7.44564"><ele>1596.4</ele><time>2016-07-19T16:33:53Z</time></trkpt>
<trkpt lat="46.19809" lon="7.44539"><ele>1597.4</ele><time>2016-07-19T16:33:55Z</time></trkpt>
<trkpt lat="46.19811" lon="7.44511"><ele>1597.6</ele><time>2016-07-19T16:33:58Z</time></trkpt>
<trkpt lat="46.19814" lon="7.44485"><ele>1598.2</ele><time>2016-07-19T16:34:04Z</time></trkpt>
<trkpt lat="46.19817" lon="7.44473"><ele>1599.4</ele><time>2016-07-19T16:34:09Z</time></trkpt>
<trkpt lat="46.19819" lon="7.44464"><ele>1600.4</ele><time>2016-07-19T16:34:13Z</time></trkpt>
<trkpt lat="46.19821" lon="7.44459"><ele>1601.2</ele><time>2016-07-19T16:34:15Z</time></trkpt>
<trkpt lat="46.19825" lon="7.44437"><ele>1605</ele><time>2016-07-19T16:34:25Z</time></trkpt>
<trkpt lat="46.19826" lon="7.44433"><ele>1605.8</ele><time>2016-07-19T16:34:27Z</time></trkpt>
<trkpt lat="46.19826" lon="7.4443"><ele>1606</ele><time>2016-07-19T16:34:28Z</time></trkpt>
<trkpt lat="46.19827" lon="7.44423"><ele>1606.8</ele><time>2016-07-19T16:34:31Z</time></trkpt>
<trkpt lat="46.19829" lon="7.44397"><ele>1608.6</ele><time>2016-07-19T16:34:42Z</time></trkpt>
<trkpt lat="46.19829" lon="7.44385"><ele>1609.2</ele><time>2016-07-19T16:34:48Z</time></trkpt>
<trkpt lat="46.1983" lon="7.44378"><ele>1609.2</ele><time>2016-07-19T16:34:51Z</time></trkpt>
<trkpt lat="46.19832" lon="7.44371"><ele>1610</ele><time>2016-07-19T16:34:55Z</time></trkpt>
<trkpt lat="46.19833" lon="7.44369"><ele>1610.2</ele><time>2016-07-19T16:34:56Z</time></trkpt>
<trkpt lat="46.19835" lon="7.44365"><ele>1610.4</ele><time>2016-07-19T16:34:58Z</time></trkpt>
<trkpt lat="46.19846" lon="7.44354"><ele>1612.6</ele><time>2016-07-19T16:35:07Z</time></trkpt>
<trkpt lat="46.19847" lon="7.44353"><ele>1613</ele><time>2016-07-19T16:35:08Z</time></trkpt>
<trkpt lat="46.19855" lon="7.44343"><ele>1615.6</ele><time>2016-07-19T16:35:15Z</time></trkpt>
<trkpt lat="46.19859" lon="7.44337"><ele>1616.4</ele><time>2016-07-19T16:35:19Z</time></trkpt>
<trkpt lat="46.1986" lon="7.44335"><ele>1616.6</ele><time>2016-07-19T16:35:20Z</time></trkpt>
<trkpt lat="46.19873" lon="7.44315"><ele>1617.6</ele><time>2016-07-19T16:35:33Z</time></trkpt>
<trkpt lat="46.19884" lon="7.44293"><ele>1619</ele><time>2016-07-19T16:35:46Z</time></trkpt>
<trkpt lat="46.19896" lon="7.44271"><ele>1619.8</ele><time>2016-07-19T16:35:59Z</time></trkpt>
<trkpt lat="46.19904" lon="7.44253"><ele>1621.6</ele><time>2016-07-19T16:36:09Z</time></trkpt>
<trkpt lat="46.19909" lon="7.44248"><ele>1622.4</ele><time>2016-07-19T16:36:13Z</time></trkpt>
<trkpt lat="46.19919" lon="7.44238"><ele>1623.8</ele><time>2016-07-19T16:36:21Z</time></trkpt>
<trkpt lat="46.19923" lon="7.44233"><ele>1624.2</ele><time>2016-07-19T16:36:25Z</time></trkpt>
<trkpt lat="46.19927" lon="7.44229"><ele>1624.6</ele><time>2016-07-19T16:36:28Z</time></trkpt>
<trkpt lat="46.19939" lon="7.4422"><ele>1626</ele><time>2016-07-19T16:36:37Z</time></trkpt>
<trkpt lat="46.19953" lon="7.44203"><ele>1628.2</ele><time>2016-07-19T16:36:49Z</time></trkpt>
<trkpt lat="46.19959" lon="7.44192"><ele>1629.2</ele><time>2016-07-19T16:36:55Z</time></trkpt>
<trkpt lat="46.19965" lon="7.44183"><ele>1630.4</ele><time>2016-07-19T16:37:01Z</time></trkpt>
<trkpt lat="46.19975" lon="7.44175"><ele>1631.8</ele><time>2016-07-19T16:37:07Z</time></trkpt>
<trkpt lat="46.19981" lon="7.44169"><ele>1633</ele><time>2016-07-19T16:37:11Z</time></trkpt>
<trkpt lat="46.19993" lon="7.4416"><ele>1635</ele><time>2016-07-19T16:37:19Z</time></trkpt>
<trkpt lat="46.20014" lon="7.44151"><ele>1637.4</ele><time>2016-07-19T16:37:28Z</time></trkpt>
<trkpt lat="46.20036" lon="7.44151"><ele>1640</ele><time>2016-07-19T16:37:34Z</time></trkpt>
<trkpt lat="46.20055" lon="7.44146"><ele>1641.6</ele><time>2016-07-19T16:37:41Z</time></trkpt>
<trkpt lat="46.20064" lon="7.44131"><ele>1642.4</ele><time>2016-07-19T16:37:45Z</time></trkpt>
<trkpt lat="46.20069" lon="7.44125"><ele>1642.4</ele><time>2016-07-19T16:37:47Z</time></trkpt>
<trkpt lat="46.20072" lon="7.44121"><ele>1642.4</ele><time>2016-07-19T16:37:48Z</time></trkpt>
<trkpt lat="46.20078" lon="7.44114"><ele>1642</ele><time>2016-07-19T16:37:50Z</time></trkpt>
<trkpt lat="46.20086" lon="7.44094"><ele>1641.2</ele><time>2016-07-19T16:37:54Z</time></trkpt>
<trkpt lat="46.20093" lon="7.44085"><ele>1636.2</ele><time>2016-07-19T16:37:56Z</time></trkpt>
<trkpt lat="46.20107" lon="7.44063"><ele>1632</ele><time>2016-07-19T16:38:01Z</time></trkpt>
<trkpt lat="46.20112" lon="7.44053"><ele>1630.2</ele><time>2016-07-19T16:38:03Z</time></trkpt>
<trkpt lat="46.20131" lon="7.44037"><ele>1625.8</ele><time>2016-07-19T16:38:08Z</time></trkpt>
<trkpt lat="46.20149" lon="7.44022"><ele>1625.4</ele><time>2016-07-19T16:38:14Z</time></trkpt>
<trkpt lat="46.20168" lon="7.44016"><ele>1624.8</ele><time>2016-07-19T16:38:21Z</time></trkpt>
<trkpt lat="46.2019" lon="7.44008"><ele>1624.8</ele><time>2016-07-19T16:38:26Z</time></trkpt>
<trkpt lat="46.20197" lon="7.44005"><ele>1625.2</ele><time>2016-07-19T16:38:28Z</time></trkpt>
<trkpt lat="46.20216" lon="7.44002"><ele>1626.2</ele><time>2016-07-19T16:38:36Z</time></trkpt>
<trkpt lat="46.20219" lon="7.44003"><ele>1626.4</ele><time>2016-07-19T16:38:37Z</time></trkpt>
<trkpt lat="46.20238" lon="7.44003"><ele>1629.6</ele><time>2016-07-19T16:38:43Z</time></trkpt>
<trkpt lat="46.20246" lon="7.44004"><ele>1630.8</ele><time>2016-07-19T16:38:48Z</time></trkpt>
<trkpt lat="46.20253" lon="7.44009"><ele>1629.8</ele><time>2016-07-19T16:38:52Z</time></trkpt>
<trkpt lat="46.20263" lon="7.44015"><ele>1629.4</ele><time>2016-07-19T16:38:58Z</time></trkpt>
<trkpt lat="46.2027" lon="7.44019"><ele>1630.2</ele><time>2016-07-19T16:39:02Z</time></trkpt>
<trkpt lat="46.20274" lon="7.44018"><ele>1631</ele><time>2016-07-19T16:39:04Z</time></trkpt>
<trkpt lat="46.20275" lon="7.44017"><ele>1631.2</ele><time>2016-07-19T16:39:05Z</time></trkpt>
<trkpt lat="46.20283" lon="7.44015"><ele>1632.2</ele><time>2016-07-19T16:39:09Z</time></trkpt>
<trkpt lat="46.20291" lon="7.44019"><ele>1633.2</ele><time>2016-07-19T16:39:13Z</time></trkpt>
<trkpt lat="46.20309" lon="7.44021"><ele>1635.4</ele><time>2016-07-19T16:39:20Z</time></trkpt>
<trkpt lat="46.20317" lon="7.44022"><ele>1636</ele><time>2016-07-19T16:39:23Z</time></trkpt>
<trkpt lat="46.20323" lon="7.44024"><ele>1635.6</ele><time>2016-07-19T16:39:26Z</time></trkpt>
<trkpt lat="46.20326" lon="7.44026"><ele>1634.2</ele><time>2016-07-19T16:39:29Z</time></trkpt>
<trkpt lat="46.20328" lon="7.4403"><ele>1632.8</ele><time>2016-07-19T16:39:33Z</time></trkpt>
<trkpt lat="46.20331" lon="7.44036"><ele>1631.6</ele><time>2016-07-19T16:39:37Z</time></trkpt>
<trkpt lat="46.2034" lon="7.44051"><ele>1629.6</ele><time>2016-07-19T16:39:46Z</time></trkpt>
<trkpt lat="46.20348" lon="7.44058"><ele>1628.8</ele><time>2016-07-19T16:39:52Z</time></trkpt>
<trkpt lat="46.20351" lon="7.44063"><ele>1628.2</ele><time>2016-07-19T16:39:55Z</time></trkpt>
<trkpt lat="46.20353" lon="7.44064"><ele>1628</ele><time>2016-07-19T16:39:57Z</time></trkpt>
<trkpt lat="46.20357" lon="7.44067"><ele>1627.2</ele><time>2016-07-19T16:40:03Z</time></trkpt>
<trkpt lat="46.20372" lon="7.44082"><ele>1623</ele><time>2016-07-19T16:40:10Z</time></trkpt>
<trkpt lat="46.20379" lon="7.4409"><ele>1621.2</ele><time>2016-07-19T16:40:14Z</time></trkpt>
<trkpt lat="46.20382" lon="7.44092"><ele>1620.6</ele><time>2016-07-19T16:40:16Z</time></trkpt>
<trkpt lat="46.20392" lon="7.44105"><ele>1617.6</ele><time>2016-07-19T16:40:25Z</time></trkpt>
<trkpt lat="46.20396" lon="7.44111"><ele>1615.2</ele><time>2016-07-19T16:40:30Z</time></trkpt>
<trkpt lat="46.20408" lon="7.44121"><ele>1612.6</ele><time>2016-07-19T16:40:37Z</time></trkpt>
<trkpt lat="46.2041" lon="7.44127"><ele>1612</ele><time>2016-07-19T16:40:41Z</time></trkpt>
<trkpt lat="46.20411" lon="7.44129"><ele>1611.4</ele><time>2016-07-19T16:40:45Z</time></trkpt>
<trkpt lat="46.20416" lon="7.44135"><ele>1609</ele><time>2016-07-19T16:40:55Z</time></trkpt>
<trkpt lat="46.20418" lon="7.44137"><ele>1607.4</ele><time>2016-07-19T16:40:59Z</time></trkpt>
<trkpt lat="46.20428" lon="7.44147"><ele>1603.6</ele><time>2016-07-19T16:41:18Z</time></trkpt>
<trkpt lat="46.20442" lon="7.4416"><ele>1603.8</ele><time>2016-07-19T16:41:38Z</time></trkpt>
<trkpt lat="46.2045" lon="7.44173"><ele>1603.2</ele><time>2016-07-19T16:42:00Z</time></trkpt>
<trkpt lat="46.20456" lon="7.44184"><ele>1603</ele><time>2016-07-19T16:42:06Z</time></trkpt>
<trkpt lat="46.20461" lon="7.4419"><ele>1603.2</ele><time>2016-07-19T16:42:11Z</time></trkpt>
<trkpt lat="46.20469" lon="7.44198"><ele>1603</ele><time>2016-07-19T16:42:16Z</time></trkpt>
<trkpt lat="46.20486" lon="7.44211"><ele>1603.6</ele><time>2016-07-19T16:42:24Z</time></trkpt>
<trkpt lat="46.20495" lon="7.44213"><ele>1603.4</ele><time>2016-07-19T16:42:31Z</time></trkpt>
<trkpt lat="46.20497" lon="7.44217"><ele>1603.2</ele><time>2016-07-19T16:42:37Z</time></trkpt>
<trkpt lat="46.205" lon="7.44226"><ele>1602.4</ele><time>2016-07-19T16:42:45Z</time></trkpt>
<trkpt lat="46.20504" lon="7.44229"><ele>1602</ele><time>2016-07-19T16:42:49Z</time></trkpt>
<trkpt lat="46.2051" lon="7.44233"><ele>1601.6</ele><time>2016-07-19T16:42:51Z</time></trkpt>
<trkpt lat="46.20519" lon="7.44217"><ele>1600.4</ele><time>2016-07-19T16:42:59Z</time></trkpt>
<trkpt lat="46.20516" lon="7.44206"><ele>1599.4</ele><time>2016-07-19T16:43:02Z</time></trkpt>
<trkpt lat="46.20515" lon="7.44203"><ele>1599</ele><time>2016-07-19T16:43:03Z</time></trkpt>
<trkpt lat="46.20515" lon="7.44185"><ele>1596.2</ele><time>2016-07-19T16:43:08Z</time></trkpt>
<trkpt lat="46.20518" lon="7.44169"><ele>1593.8</ele><time>2016-07-19T16:43:13Z</time></trkpt>
<trkpt lat="46.20528" lon="7.44146"><ele>1591.2</ele><time>2016-07-19T16:43:21Z</time></trkpt>
<trkpt lat="46.20529" lon="7.44144"><ele>1590.8</ele><time>2016-07-19T16:43:22Z</time></trkpt>
<trkpt lat="46.20546" lon="7.44139"><ele>1587.2</ele><time>2016-07-19T16:43:29Z</time></trkpt>
<trkpt lat="46.20563" lon="7.44147"><ele>1582.4</ele><time>2016-07-19T16:43:37Z</time></trkpt>
<trkpt lat="46.20563" lon="7.44135"><ele>1580</ele><time>2016-07-19T16:43:41Z</time></trkpt>
<trkpt lat="46.20555" lon="7.44109"><ele>1578</ele><time>2016-07-19T16:43:45Z</time></trkpt>
<trkpt lat="46.20541" lon="7.44087"><ele>1575.6</ele><time>2016-07-19T16:43:48Z</time></trkpt>
<trkpt lat="46.20522" lon="7.44064"><ele>1572.4</ele><time>2016-07-19T16:43:51Z</time></trkpt>
<trkpt lat="46.20515" lon="7.44056"><ele>1571.4</ele><time>2016-07-19T16:43:52Z</time></trkpt>
<trkpt lat="46.205" lon="7.4404"><ele>1569.2</ele><time>2016-07-19T16:43:54Z</time></trkpt>
<trkpt lat="46.20484" lon="7.44023"><ele>1566.4</ele><time>2016-07-19T16:43:56Z</time></trkpt>
<trkpt lat="46.20469" lon="7.44008"><ele>1564.2</ele><time>2016-07-19T16:43:58Z</time></trkpt>
<trkpt lat="46.20449" lon="7.43989"><ele>1562</ele><time>2016-07-19T16:44:01Z</time></trkpt>
<trkpt lat="46.2044" lon="7.43979"><ele>1561.2</ele><time>2016-07-19T16:44:03Z</time></trkpt>
<trkpt lat="46.20451" lon="7.43958"><ele>1557.8</ele><time>2016-07-19T16:44:08Z</time></trkpt>
<trkpt lat="46.20457" lon="7.43961"><ele>1556.6</ele><time>2016-07-19T16:44:09Z</time></trkpt>
<trkpt lat="46.20474" lon="7.43974"><ele>1554.4</ele><time>2016-07-19T16:44:12Z</time></trkpt>
<trkpt lat="46.20481" lon="7.43978"><ele>1554</ele><time>2016-07-19T16:44:13Z</time></trkpt>
<trkpt lat="46.205" lon="7.43989"><ele>1552.2</ele><time>2016-07-19T16:44:16Z</time></trkpt>
<trkpt lat="46.2052" lon="7.44001"><ele>1550.4</ele><time>2016-07-19T16:44:19Z</time></trkpt>
<trkpt lat="46.20539" lon="7.44015"><ele>1549.2</ele><time>2016-07-19T16:44:22Z</time></trkpt>
<trkpt lat="46.20556" lon="7.44026"><ele>1547.8</ele><time>2016-07-19T16:44:25Z</time></trkpt>
<trkpt lat="46.20564" lon="7.44032"><ele>1547.2</ele><time>2016-07-19T16:44:27Z</time></trkpt>
<trkpt lat="46.2057" lon="7.44036"><ele>1546.6</ele><time>2016-07-19T16:44:29Z</time></trkpt>
<trkpt lat="46.20572" lon="7.44036"><ele>1547.2</ele><time>2016-07-19T16:44:30Z</time></trkpt>
<trkpt lat="46.20574" lon="7.44033"><ele>1546.4</ele><time>2016-07-19T16:44:32Z</time></trkpt>
<trkpt lat="46.20574" lon="7.44028"><ele>1545.6</ele><time>2016-07-19T16:44:34Z</time></trkpt>
<trkpt lat="46.20566" lon="7.44004"><ele>1541</ele><time>2016-07-19T16:44:41Z</time></trkpt>
<trkpt lat="46.20562" lon="7.43993"><ele>1538.6</ele><time>2016-07-19T16:44:44Z</time></trkpt>
<trkpt lat="46.2056" lon="7.43989"><ele>1537.2</ele><time>2016-07-19T16:44:46Z</time></trkpt>
<trkpt lat="46.20558" lon="7.43984"><ele>1535.6</ele><time>2016-07-19T16:44:49Z</time></trkpt>
<trkpt lat="46.2056" lon="7.4398"><ele>1534.2</ele><time>2016-07-19T16:44:52Z</time></trkpt>
<trkpt lat="46.20563" lon="7.43977"><ele>1533.2</ele><time>2016-07-19T16:44:54Z</time></trkpt>
<trkpt lat="46.20577" lon="7.43965"><ele>1527.2</ele><time>2016-07-19T16:45:03Z</time></trkpt>
<trkpt lat="46.20596" lon="7.43959"><ele>1522.2</ele><time>2016-07-19T16:45:12Z</time></trkpt>
<trkpt lat="46.20615" lon="7.43956"><ele>1516.6</ele><time>2016-07-19T16:45:19Z</time></trkpt>
<trkpt lat="46.20634" lon="7.43957"><ele>1510.4</ele><time>2016-07-19T16:45:29Z</time></trkpt>
<trkpt lat="46.20653" lon="7.43967"><ele>1504.8</ele><time>2016-07-19T16:45:37Z</time></trkpt>
<trkpt lat="46.20665" lon="7.43973"><ele>1500.6</ele><time>2016-07-19T16:45:43Z</time></trkpt>
<trkpt lat="46.20666" lon="7.43958"><ele>1496.4</ele><time>2016-07-19T16:45:53Z</time></trkpt>
<trkpt lat="46.20665" lon="7.43956"><ele>1495.6</ele><time>2016-07-19T16:46:09Z</time></trkpt>
<trkpt lat="46.20667" lon="7.43957"><ele>1495.2</ele><time>2016-07-19T16:46:13Z</time></trkpt>
<trkpt lat="46.20668" lon="7.43957"><ele>1494.6</ele><time>2016-07-19T16:46:21Z</time></trkpt>
<trkpt lat="46.20668" lon="7.43957"><ele>1494.4</ele><time>2016-07-19T16:46:25Z</time></trkpt>
<trkpt lat="46.20667" lon="7.43957"><ele>1494.2</ele><time>2016-07-19T16:46:34Z</time></trkpt>
<trkpt lat="46.20667" lon="7.43959"><ele>1493.8</ele><time>2016-07-19T16:46:50Z</time></trkpt>
<trkpt lat="46.20667" lon="7.4396"><ele>1494</ele><time>2016-07-19T16:46:53Z</time></trkpt>
<trkpt lat="46.20667" lon="7.4396"><ele>1494.2</ele><time>2016-07-19T16:46:55Z</time></trkpt>
<trkpt lat="46.20666" lon="7.43959"><ele>1494.6</ele><time>2016-07-19T16:47:00Z</time></trkpt>
<trkpt lat="46.20668" lon="7.43962"><ele>1495</ele><time>2016-07-19T16:47:07Z</time></trkpt>
<trkpt lat="46.20667" lon="7.4396"><ele>1494.6</ele><time>2016-07-19T16:47:24Z</time></trkpt>
<trkpt lat="46.20666" lon="7.4396"><ele>1494.4</ele><time>2016-07-19T16:47:29Z</time></trkpt>
<trkpt lat="46.20666" lon="7.43958"><ele>1494.2</ele><time>2016-07-19T16:47:33Z</time></trkpt>
<trkpt lat="46.20667" lon="7.43958"><ele>1494.2</ele><time>2016-07-19T16:47:34Z</time></trkpt>
</trkseg></trk></gpx>